createdAt,value
2022-10-07T00:01:23.575Z,31.38
2022-10-07T00:04:09.188Z,31.27
2022-10-07T00:06:54.986Z,29.60
2022-10-07T00:09:40.505Z,31.58
2022-10-07T00:12:26.382Z,32.15
2022-10-07T00:15:11.820Z,30.35
2022-10-07T00:17:57.488Z,30.65
2022-10-07T00:20:42.945Z,31.10
2022-10-07T00:23:28.620Z,30.30
2022-10-07T00:26:17.121Z,29.15
2022-10-07T00:29:04.773Z,31.13
2022-10-07T00:31:54.807Z,31.83
2022-10-07T00:34:43.481Z,31.40
2022-10-07T00:37:32.581Z,31.42
2022-10-07T00:40:18.103Z,31.45
2022-10-07T00:43:21.539Z,30.98
2022-10-07T00:49:14.477Z,30.38
2022-10-07T00:51:59.950Z,31.20
2022-10-07T00:54:46.503Z,31.67
2022-10-07T00:57:33.444Z,31.35
2022-10-07T01:00:21.847Z,29.95
2022-10-07T01:03:07.491Z,31.70
2022-10-07T01:05:53.200Z,29.38
2022-10-07T01:08:39.006Z,29.90
2022-10-07T01:11:43.255Z,31.48
2022-10-07T01:14:33.883Z,30.13
2022-10-07T01:17:31.710Z,31.55
2022-10-07T01:20:33.384Z,31.23
2022-10-07T01:23:37.856Z,30.80
2022-10-07T01:26:44.754Z,31.23
2022-10-07T01:29:44.063Z,31.02
2022-10-07T01:32:37.933Z,31.80
2022-10-07T01:35:27.369Z,31.92
2022-10-07T01:38:16.317Z,31.75
2022-10-07T01:41:08.472Z,31.45
2022-10-07T01:43:54.927Z,32.10
2022-10-07T01:46:40.525Z,33.03
2022-10-07T01:49:27.202Z,33.05
2022-10-07T01:52:12.897Z,33.00
2022-10-07T01:55:24.592Z,32.53
2022-10-07T01:58:22.627Z,31.83
2022-10-07T02:01:08.259Z,32.63
2022-10-07T02:04:21.086Z,33.40
2022-10-07T02:07:58.155Z,31.35
2022-10-07T02:11:05.832Z,32.03
2022-10-07T02:14:14.210Z,33.22
2022-10-07T02:17:11.482Z,32.90
2022-10-07T02:20:01.516Z,31.38
2022-10-07T02:22:49.825Z,32.20
2022-10-07T02:25:40.182Z,32.88
2022-10-07T02:28:26.886Z,30.50
2022-10-07T02:31:17.779Z,31.20
2022-10-07T02:34:05.792Z,32.95
2022-10-07T02:36:55.916Z,33.30
2022-10-07T02:39:43.658Z,31.33
2022-10-07T02:42:33.676Z,32.42
2022-10-07T02:45:27.099Z,31.98
2022-10-07T02:48:21.870Z,32.90
2022-10-07T02:51:18.653Z,33.30
2022-10-07T02:54:07.136Z,33.65
2022-10-07T02:56:54.125Z,34.17
2022-10-07T02:59:41.469Z,32.85
2022-10-07T03:02:51.375Z,33.30
2022-10-07T03:05:37.203Z,34.65
2022-10-07T03:08:24.531Z,34.42
2022-10-07T03:11:12.006Z,35.92
2022-10-07T03:13:58.454Z,35.85
2022-10-07T03:16:44.012Z,35.72
2022-10-07T03:19:29.813Z,36.08
2022-10-07T03:22:17.453Z,37.08
2022-10-07T03:25:03.282Z,37.22
2022-10-07T03:27:49.265Z,35.47
2022-10-07T03:30:35.554Z,36.80
2022-10-07T03:33:25.012Z,34.47
2022-10-07T03:36:10.917Z,36.05
2022-10-07T03:38:59.415Z,34.33
2022-10-07T03:41:48.474Z,34.83
2022-10-07T03:44:35.618Z,35.22
2022-10-07T03:47:21.748Z,38.40
2022-10-07T03:50:08.827Z,38.05
2022-10-07T03:52:54.814Z,36.95
2022-10-07T03:55:41.142Z,38.83
2022-10-07T03:58:26.582Z,36.78
2022-10-07T04:01:15.010Z,37.45
2022-10-07T04:04:11.539Z,36.70
2022-10-07T04:06:57.162Z,35.72
2022-10-07T04:09:42.771Z,37.50
2022-10-07T04:12:33.495Z,35.58
2022-10-07T04:15:20.754Z,37.40
2022-10-07T04:18:07.081Z,37.28
2022-10-07T04:20:53.273Z,37.53
2022-10-07T04:23:42.248Z,37.55
2022-10-07T04:26:28.054Z,38.20
2022-10-07T04:29:13.647Z,37.90
2022-10-07T04:31:59.871Z,37.70
2022-10-07T04:34:45.094Z,36.47
2022-10-07T04:37:31.403Z,36.85
2022-10-07T04:40:17.406Z,36.55
2022-10-07T04:43:23.539Z,38.38
2022-10-07T04:46:15.036Z,37.90
2022-10-07T04:49:10.558Z,36.60
2022-10-07T04:51:57.845Z,37.58
2022-10-07T04:54:48.462Z,36.80
2022-10-07T04:57:34.747Z,36.72
2022-10-07T05:00:20.651Z,37.05
2022-10-07T05:03:07.740Z,37.13
2022-10-07T05:05:56.952Z,38.75
2022-10-07T05:08:44.275Z,38.03
2022-10-07T05:11:31.552Z,38.40
2022-10-07T05:14:24.215Z,37.90
2022-10-07T05:17:11.739Z,37.80
2022-10-07T05:19:57.401Z,37.10
2022-10-07T05:22:43.930Z,39.40
2022-10-07T05:25:29.511Z,41.03
2022-10-07T05:28:16.095Z,39.95
2022-10-07T05:31:13.163Z,39.30
2022-10-07T05:34:00.760Z,40.67
2022-10-07T05:36:47.393Z,38.38
2022-10-07T05:39:33.243Z,38.90
2022-10-07T05:42:31.699Z,39.60
2022-10-07T05:45:20.031Z,40.15
2022-10-07T05:48:05.580Z,40.80
2022-10-07T05:50:52.498Z,39.08
2022-10-07T05:53:41.287Z,36.95
2022-10-07T05:56:27.523Z,35.38
2022-10-07T05:59:14.821Z,34.03
2022-10-07T06:02:02.623Z,35.38
2022-10-07T06:04:49.112Z,33.63
2022-10-07T06:07:35.816Z,33.60
2022-10-07T06:10:41.155Z,32.90
2022-10-07T06:13:27.243Z,32.15
2022-10-07T06:16:13.173Z,32.58
2022-10-07T06:18:59.906Z,31.58
2022-10-07T06:21:47.353Z,32.22
2022-10-07T06:24:33.892Z,32.30
2022-10-07T06:27:20.822Z,33.60
2022-10-07T06:30:07.652Z,32.42
2022-10-07T06:32:53.689Z,32.58
2022-10-07T06:35:40.306Z,33.53
2022-10-07T06:38:27.860Z,32.80
2022-10-07T06:41:14.247Z,33.10
2022-10-07T06:44:00.727Z,32.20
2022-10-07T06:46:46.621Z,35.10
2022-10-07T06:49:33.162Z,35.78
2022-10-07T06:52:18.822Z,33.90
2022-10-07T06:55:04.823Z,36.67
2022-10-07T06:57:51.615Z,35.80
2022-10-07T07:00:39.732Z,36.90
2022-10-07T07:03:26.773Z,36.60
2022-10-07T07:06:14.845Z,38.20
2022-10-07T07:09:05.219Z,37.35
2022-10-07T07:11:56.397Z,39.63
2022-10-07T07:14:46.668Z,38.63
2022-10-07T07:17:37.747Z,37.38
2022-10-07T07:20:24.398Z,38.10
2022-10-07T07:23:11.064Z,38.35
2022-10-07T07:25:57.090Z,38.40
2022-10-07T07:28:42.888Z,39.30
2022-10-07T07:31:30.696Z,39.70
2022-10-07T07:34:16.476Z,36.38
2022-10-07T07:37:03.849Z,39.33
2022-10-07T07:39:56.454Z,37.10
2022-10-07T07:42:42.775Z,38.20
2022-10-07T07:45:29.153Z,36.22
2022-10-07T07:48:15.299Z,35.03
2022-10-07T07:51:01.669Z,35.50
2022-10-07T07:53:49.950Z,33.95
2022-10-07T07:56:36.951Z,31.80
2022-10-07T07:59:25.146Z,32.45
2022-10-07T08:02:12.648Z,33.60
2022-10-07T08:05:01.715Z,33.75
2022-10-07T08:07:47.795Z,33.88
2022-10-07T08:10:34.162Z,34.58
2022-10-07T08:13:19.783Z,34.97
2022-10-07T08:16:06.385Z,34.40
2022-10-07T08:18:53.343Z,35.55
2022-10-07T08:21:39.824Z,32.58
2022-10-07T08:24:28.337Z,35.70
2022-10-07T08:27:14.194Z,36.17
2022-10-07T08:30:00.212Z,32.67
2022-10-07T08:32:45.823Z,29.58
2022-10-07T08:35:31.687Z,30.50
2022-10-07T08:38:17.126Z,31.95
2022-10-07T08:41:16.162Z,27.58
2022-10-07T08:44:16.710Z,30.50
2022-10-07T08:47:11.619Z,30.73
2022-10-07T08:50:18.151Z,32.67
2022-10-07T08:53:08.771Z,28.35
2022-10-07T08:56:17.852Z,27.95
2022-10-07T08:59:17.797Z,29.55
2022-10-07T09:02:23.478Z,26.27
2022-10-07T09:05:33.817Z,25.60
2022-10-07T09:08:28.553Z,28.63
2022-10-07T09:11:20.566Z,24.02
2022-10-07T09:14:23.998Z,30.58
2022-10-07T09:17:35.186Z,30.40
2022-10-07T09:20:26.776Z,28.33
2022-10-07T09:23:16.140Z,31.90
2022-10-07T09:26:01.642Z,24.63
2022-10-07T09:28:47.443Z,24.10
2022-10-07T09:31:33.643Z,25.63
2022-10-07T09:34:25.515Z,25.05
2022-10-07T09:37:19.346Z,27.02
2022-10-07T09:40:30.920Z,27.65
2022-10-07T09:43:18.909Z,29.92
2022-10-07T09:46:06.188Z,28.23
2022-10-07T09:48:54.841Z,26.27
2022-10-07T09:51:41.158Z,29.52
2022-10-07T09:54:28.089Z,27.50
2022-10-07T09:57:27.738Z,28.63
2022-10-07T10:00:13.435Z,26.95
2022-10-07T10:03:05.509Z,25.85
2022-10-07T10:06:00.416Z,24.00
2022-10-07T10:08:55.389Z,26.05
2022-10-07T10:11:41.538Z,23.05
2022-10-07T10:14:35.605Z,28.65
2022-10-07T10:17:32.028Z,23.52
2022-10-07T10:20:20.843Z,22.23
2022-10-07T10:23:37.739Z,19.30
2022-10-07T10:26:36.312Z,24.70
2022-10-07T10:29:21.561Z,26.75
2022-10-07T10:32:13.540Z,26.42
2022-10-07T10:35:22.066Z,18.95
2022-10-07T10:38:35.630Z,18.75
2022-10-07T10:41:43.965Z,18.10
2022-10-07T10:44:56.666Z,25.27
2022-10-07T10:48:13.469Z,25.23
2022-10-07T10:51:31.426Z,17.75
2022-10-07T10:54:56.290Z,18.60
2022-10-07T10:58:00.682Z,21.05
2022-10-07T11:01:00.087Z,16.92
2022-10-07T11:04:17.591Z,24.85
2022-10-07T11:07:14.568Z,22.80
2022-10-07T11:10:07.055Z,22.92
2022-10-07T11:13:00.033Z,21.80
2022-10-07T11:16:27.108Z,22.33
2022-10-07T11:19:18.634Z,19.08
2022-10-07T11:22:11.201Z,23.90
2022-10-07T11:25:28.656Z,21.23
2022-10-07T11:28:23.068Z,18.92
2022-10-07T11:31:17.528Z,18.88
2022-10-07T11:34:41.835Z,21.90
2022-10-07T11:40:16.634Z,15.82
2022-10-07T11:43:09.137Z,19.95
2022-10-07T11:46:17.399Z,19.73
2022-10-07T11:49:12.402Z,18.27
2022-10-07T11:52:01.401Z,14.45
2022-10-07T11:55:00.942Z,18.83
2022-10-07T11:57:54.158Z,17.75
2022-10-07T12:00:40.481Z,17.75
2022-10-07T12:03:26.015Z,13.55
2022-10-07T12:06:12.167Z,13.80
2022-10-07T12:08:57.572Z,15.38
2022-10-07T12:11:46.887Z,11.55
2022-10-07T12:14:41.104Z,17.45
2022-10-07T12:17:30.589Z,12.98
2022-10-07T12:20:35.525Z,14.00
2022-10-07T12:23:26.632Z,12.02
2022-10-07T12:26:31.411Z,16.75
2022-10-07T12:29:28.733Z,12.07
2022-10-07T12:32:40.712Z,15.60
2022-10-07T12:35:32.363Z,15.80
2022-10-07T12:38:29.436Z,16.15
2022-10-07T12:41:29.511Z,16.67
2022-10-07T12:44:26.766Z,18.27
2022-10-07T12:47:19.262Z,12.90
2022-10-07T12:50:12.716Z,16.85
2022-10-07T12:53:02.564Z,15.02
2022-10-07T12:55:50.678Z,13.02
2022-10-07T12:59:45.958Z,12.95
2022-10-07T13:02:56.778Z,11.13
2022-10-07T13:06:27.126Z,9.38
2022-10-07T13:09:46.071Z,9.68
2022-10-07T13:12:50.760Z,11.32
2022-10-07T13:15:45.779Z,11.35
2022-10-07T13:18:57.100Z,10.75
2022-10-07T13:21:52.154Z,10.73
2022-10-07T13:24:53.890Z,13.75
2022-10-07T13:27:42.044Z,14.50
2022-10-07T13:30:42.444Z,12.55
2022-10-07T13:33:31.927Z,11.82
2022-10-07T13:36:24.423Z,8.93
2022-10-07T13:39:19.443Z,14.52
2022-10-07T13:42:11.334Z,9.48
2022-10-07T13:45:02.628Z,11.25
2022-10-07T13:47:49.243Z,11.98
2022-10-07T13:50:35.789Z,10.98
2022-10-07T13:53:26.177Z,9.80
2022-10-07T13:56:40.509Z,8.32
2022-10-07T13:59:26.629Z,8.00
2022-10-07T14:02:18.464Z,6.53
2022-10-07T14:05:20.133Z,8.18
2022-10-07T14:08:17.019Z,8.13
2022-10-07T14:11:16.307Z,8.20
2022-10-07T14:14:05.775Z,7.53
2022-10-07T14:16:59.818Z,5.93
2022-10-07T14:19:53.437Z,7.23
2022-10-07T14:22:41.908Z,7.63
2022-10-07T14:25:30.147Z,8.23
2022-10-07T14:28:24.920Z,7.18
2022-10-07T14:31:40.271Z,7.35
2022-10-07T14:34:44.175Z,8.18
2022-10-07T14:37:31.970Z,7.88
2022-10-07T14:40:23.517Z,8.80
2022-10-07T14:43:09.384Z,8.23
2022-10-07T14:45:54.981Z,7.88
2022-10-07T14:48:40.538Z,8.35
2022-10-07T14:51:29.455Z,8.57
2022-10-07T14:54:15.379Z,9.55
2022-10-07T14:57:01.018Z,8.45
2022-10-07T14:59:50.114Z,10.60
2022-10-07T15:02:35.724Z,11.52
2022-10-07T15:05:22.921Z,8.80
2022-10-07T15:08:11.638Z,8.27
2022-10-07T15:10:58.191Z,8.68
2022-10-07T15:13:46.637Z,8.68
2022-10-07T15:16:32.342Z,8.98
2022-10-07T15:19:19.295Z,9.73
2022-10-07T15:22:05.687Z,9.27
2022-10-07T15:24:51.378Z,8.20
2022-10-07T15:27:37.840Z,10.85
2022-10-07T15:30:23.412Z,10.65
2022-10-07T15:33:10.367Z,8.82
2022-10-07T15:35:57.796Z,9.45
2022-10-07T15:38:43.891Z,9.73
2022-10-07T15:46:54.489Z,7.93
2022-10-07T15:49:40.694Z,9.13
2022-10-07T15:52:27.703Z,8.55
2022-10-07T15:55:13.413Z,8.40
2022-10-07T15:57:59.032Z,7.55
2022-10-07T16:01:00.461Z,7.03
2022-10-07T16:03:48.675Z,6.78
2022-10-07T16:06:35.752Z,6.15
2022-10-07T16:09:22.894Z,7.25
2022-10-07T16:12:08.880Z,7.20
2022-10-07T16:14:54.807Z,6.28
2022-10-07T16:17:40.197Z,8.50
2022-10-07T16:20:25.808Z,9.43
2022-10-07T16:23:11.597Z,8.50
2022-10-07T16:25:56.971Z,5.60
2022-10-07T16:29:03.298Z,7.57
2022-10-07T16:31:49.417Z,8.95
2022-10-07T16:34:35.274Z,9.48
2022-10-07T16:37:20.861Z,10.40
2022-10-07T16:40:10.068Z,8.65
2022-10-07T16:42:57.590Z,8.75
2022-10-07T16:45:43.303Z,8.30
2022-10-07T16:48:30.564Z,8.35
2022-10-07T16:51:19.151Z,8.30
2022-10-07T16:54:07.591Z,8.43
2022-10-07T16:56:53.259Z,8.63
2022-10-07T16:59:39.658Z,8.45
2022-10-07T17:02:24.920Z,8.73
2022-10-07T17:05:11.186Z,8.43
2022-10-07T17:07:56.675Z,9.30
2022-10-07T17:10:42.395Z,8.50
2022-10-07T17:13:31.681Z,8.70
2022-10-07T17:16:17.235Z,9.68
2022-10-07T17:19:07.248Z,9.43
2022-10-07T17:21:56.237Z,9.30
2022-10-07T17:24:42.151Z,9.10
2022-10-07T17:27:27.826Z,9.68
2022-10-07T17:30:16.166Z,9.82
2022-10-07T17:33:02.031Z,9.02
2022-10-07T17:35:47.583Z,9.85
2022-10-07T17:38:44.498Z,9.68
2022-10-07T17:41:32.869Z,9.60
2022-10-07T17:44:18.637Z,10.77
2022-10-07T17:47:05.197Z,10.40
2022-10-07T17:49:50.931Z,10.40
2022-10-07T17:52:36.419Z,10.73
2022-10-07T17:55:22.520Z,10.43
2022-10-07T17:58:08.351Z,10.13
2022-10-07T18:00:54.159Z,9.50
2022-10-07T18:03:40.330Z,10.20
2022-10-07T18:06:28.826Z,10.32
2022-10-07T18:09:18.560Z,10.38
2022-10-07T18:12:23.106Z,10.38
2022-10-07T18:15:19.503Z,10.60
2022-10-07T18:18:05.483Z,10.75
2022-10-07T18:20:52.983Z,11.23
2022-10-07T18:23:39.969Z,10.40
2022-10-07T18:26:25.622Z,11.38
2022-10-07T18:29:11.614Z,10.63
2022-10-07T18:31:57.260Z,11.57
2022-10-07T18:34:43.225Z,11.18
2022-10-07T18:37:28.571Z,11.45
2022-10-07T18:40:14.279Z,10.85
2022-10-07T18:42:59.951Z,11.60
2022-10-07T18:45:45.568Z,11.27
2022-10-07T18:48:36.548Z,12.35
2022-10-07T18:51:22.547Z,11.30
2022-10-07T18:54:08.128Z,11.52
2022-10-07T18:56:53.934Z,11.60
2022-10-07T18:59:39.573Z,11.32
2022-10-07T19:02:25.628Z,12.35
2022-10-07T19:05:11.599Z,12.65
2022-10-07T19:07:56.963Z,12.57
2022-10-07T19:10:43.078Z,12.77
2022-10-07T19:13:47.702Z,14.48
2022-10-07T19:16:38.907Z,13.95
2022-10-07T19:19:25.252Z,14.10
2022-10-07T19:22:11.239Z,14.57
2022-10-07T19:25:15.238Z,13.77
2022-10-07T19:28:00.858Z,12.85
2022-10-07T19:30:46.372Z,14.23
2022-10-07T19:33:32.231Z,14.77
2022-10-07T19:36:19.627Z,16.52
2022-10-07T19:39:07.027Z,18.63
2022-10-07T19:41:52.695Z,17.67
2022-10-07T19:44:38.390Z,17.80
2022-10-07T19:47:24.265Z,19.02
2022-10-07T19:50:10.499Z,19.20
2022-10-07T19:52:57.021Z,17.70
2022-10-07T19:55:45.310Z,17.30
2022-10-07T19:58:33.734Z,17.33
2022-10-07T20:01:21.746Z,16.60
2022-10-07T20:04:09.232Z,16.77
2022-10-07T20:06:58.563Z,16.45
2022-10-07T20:09:44.389Z,16.35
2022-10-07T20:12:30.117Z,15.52
2022-10-07T20:15:15.956Z,16.48
2022-10-07T20:18:04.255Z,17.10
2022-10-07T20:20:49.934Z,16.08
2022-10-07T20:23:37.321Z,15.55
2022-10-07T20:26:28.526Z,16.30
2022-10-07T20:29:16.018Z,16.40
2022-10-07T20:32:01.768Z,17.15
2022-10-07T20:34:50.133Z,16.60
2022-10-07T20:37:36.070Z,16.45
2022-10-07T20:40:40.143Z,17.92
2022-10-07T20:43:25.764Z,17.27
2022-10-07T20:46:11.429Z,18.80
2022-10-07T20:48:56.965Z,17.23
2022-10-07T20:51:42.645Z,17.33
2022-10-07T20:54:30.001Z,17.98
2022-10-07T20:57:19.261Z,18.33
2022-10-07T21:00:16.046Z,17.60
2022-10-07T21:03:01.913Z,17.20
2022-10-07T21:05:47.492Z,16.98
2022-10-07T21:08:33.199Z,17.85
2022-10-07T21:11:18.751Z,18.15
2022-10-07T21:14:04.916Z,17.85
2022-10-07T21:16:52.126Z,18.40
2022-10-07T21:19:40.631Z,17.48
2022-10-07T21:22:27.274Z,17.27
2022-10-07T21:25:13.036Z,17.33
2022-10-07T21:27:59.184Z,18.63
2022-10-07T21:30:54.091Z,18.27
2022-10-07T21:33:39.892Z,18.05
2022-10-07T21:36:26.238Z,17.10
2022-10-07T21:39:14.048Z,17.00
2022-10-07T21:41:59.865Z,18.85
2022-10-07T21:44:47.285Z,18.02
2022-10-07T21:47:32.935Z,18.73
2022-10-07T21:50:18.996Z,16.73
2022-10-07T21:53:04.410Z,18.85
2022-10-07T21:55:50.444Z,17.90
2022-10-07T21:58:37.167Z,18.02
2022-10-07T22:01:24.536Z,17.92
2022-10-07T22:04:16.747Z,17.90
2022-10-07T22:07:20.999Z,18.10
2022-10-07T22:10:07.159Z,18.02
2022-10-07T22:12:53.919Z,17.95
2022-10-07T22:15:39.860Z,18.33
2022-10-07T22:18:25.526Z,18.08
2022-10-07T22:21:19.704Z,18.58
2022-10-07T22:24:07.129Z,18.85
2022-10-07T22:26:52.587Z,18.02
2022-10-07T22:29:38.474Z,18.98
2022-10-07T22:32:24.318Z,19.10
2022-10-07T22:35:32.306Z,19.70
2022-10-07T22:38:17.821Z,18.95
2022-10-07T22:41:08.704Z,19.67
2022-10-07T22:43:54.412Z,18.85
2022-10-07T22:46:41.406Z,18.85
2022-10-07T22:49:30.100Z,18.85
2022-10-07T22:52:16.199Z,19.25
2022-10-07T22:55:03.911Z,18.73
2022-10-07T22:57:51.289Z,18.67
2022-10-07T23:00:38.242Z,20.10
2022-10-07T23:03:24.667Z,20.80
2022-10-07T23:06:12.495Z,21.08
2022-10-07T23:08:59.343Z,19.92
2022-10-07T23:11:46.040Z,20.70
2022-10-07T23:14:32.003Z,20.98
2022-10-07T23:17:17.657Z,19.85
2022-10-07T23:20:03.614Z,19.40
2022-10-07T23:22:49.896Z,19.45
2022-10-07T23:25:42.314Z,18.92
2022-10-07T23:28:28.284Z,19.02
2022-10-07T23:31:18.299Z,18.75
2022-10-07T23:34:05.515Z,18.92
2022-10-07T23:36:52.877Z,17.98
2022-10-07T23:39:38.976Z,18.63
2022-10-07T23:42:24.529Z,18.40
2022-10-07T23:45:10.547Z,17.75
2022-10-07T23:47:56.295Z,18.33
2022-10-07T23:50:49.281Z,17.50
2022-10-07T23:53:35.477Z,16.48
2022-10-07T23:56:21.414Z,16.38
2022-10-07T23:59:07.043Z,18.05
